createdAt,value
2023-05-21T00:00:06.019Z,18.3376
2023-05-21T00:01:08.760Z,18.7628
2023-05-21T00:02:10.522Z,18.6766
2023-05-21T00:03:12.673Z,18.5283
2023-05-21T00:04:14.831Z,19.0162
2023-05-21T00:05:17.001Z,18.1699
2023-05-21T00:06:19.680Z,17.6553
2023-05-21T00:07:22.011Z,18.1121
2023-05-21T00:08:24.232Z,19.0597
2023-05-21T00:09:26.431Z,16.8867
2023-05-21T00:10:34.286Z,17.5820
2023-05-21T00:11:35.957Z,17.9518
2023-05-21T00:12:38.706Z,18.6666
2023-05-21T00:13:40.545Z,18.3877
2023-05-21T00:14:43.038Z,19.0941
2023-05-21T00:15:45.257Z,20.3221
2023-05-21T00:16:48.339Z,20.4146
2023-05-21T00:17:50.133Z,19.9601
2023-05-21T00:18:52.230Z,20.1366
2023-05-21T00:19:54.598Z,19.9462
2023-05-21T00:20:56.738Z,19.5915
2023-05-21T00:21:59.307Z,19.1289
2023-05-21T00:23:07.223Z,18.6136
2023-05-21T00:24:08.732Z,18.0585
2023-05-21T00:25:11.173Z,17.8203
2023-05-21T00:26:13.391Z,17.4834
2023-05-21T00:27:15.597Z,18.0178
2023-05-21T00:28:18.247Z,18.0199
2023-05-21T00:29:25.230Z,17.1178
2023-05-21T00:30:28.504Z,18.1715
2023-05-21T00:31:31.347Z,18.5375
2023-05-21T00:32:31.990Z,17.9465
2023-05-21T00:33:34.918Z,18.3559
2023-05-21T00:34:36.844Z,17.8701
2023-05-21T00:35:38.875Z,17.5142
2023-05-21T00:36:41.457Z,18.2874
2023-05-21T00:37:43.489Z,17.1983
2023-05-21T00:38:46.281Z,16.5723
2023-05-21T00:39:49.216Z,17.4122
2023-05-21T00:40:51.467Z,16.9545
2023-05-21T00:41:54.139Z,17.0882
2023-05-21T00:42:56.342Z,17.0694
2023-05-21T00:43:57.805Z,17.0290
2023-05-21T00:45:00.192Z,16.1482
2023-05-21T00:46:07.995Z,16.8435
2023-05-21T00:47:09.597Z,17.6744
2023-05-21T00:48:12.321Z,17.2913
2023-05-21T00:49:14.555Z,17.1124
2023-05-21T00:50:18.054Z,17.8155
2023-05-21T00:51:24.410Z,18.4440
2023-05-21T00:52:27.402Z,18.0418
2023-05-21T00:53:33.708Z,18.1784
2023-05-21T00:54:36.610Z,18.4559
2023-05-21T00:55:37.974Z,18.2385
2023-05-21T00:56:40.202Z,17.9655
2023-05-21T00:57:47.410Z,18.1319
2023-05-21T00:58:50.353Z,18.1389
2023-05-21T00:59:52.244Z,19.3853
2023-05-21T01:00:58.900Z,17.7992
2023-05-21T01:02:01.638Z,18.4053
2023-05-21T01:03:08.668Z,18.1628
2023-05-21T01:04:10.598Z,17.7839
2023-05-21T01:05:13.248Z,19.6577
2023-05-21T01:06:15.571Z,18.2475
2023-05-21T01:07:17.707Z,17.4783
2023-05-21T01:08:20.241Z,18.1898
2023-05-21T01:09:27.073Z,16.3005
2023-05-21T01:10:29.449Z,16.9407
2023-05-21T01:11:31.837Z,17.0549
2023-05-21T01:12:34.294Z,17.2136
2023-05-21T01:13:36.357Z,17.8053
2023-05-21T01:14:38.691Z,18.3098
2023-05-21T01:15:41.355Z,17.7155
2023-05-21T01:16:43.480Z,17.6121
2023-05-21T01:17:45.688Z,16.7366
2023-05-21T01:18:48.228Z,17.5171
2023-05-21T01:19:50.640Z,17.8325
2023-05-21T01:20:52.909Z,18.5809
2023-05-21T01:21:55.028Z,19.2167
2023-05-21T01:22:57.580Z,19.5459
2023-05-21T01:24:05.132Z,19.1409
2023-05-21T01:25:11.879Z,19.7411
2023-05-21T01:26:14.482Z,20.2326
2023-05-21T01:27:16.459Z,19.9345
2023-05-21T01:28:18.949Z,20.2163
2023-05-21T01:29:21.421Z,19.9398
2023-05-21T01:30:23.847Z,18.3092
2023-05-21T01:31:25.881Z,19.4760
2023-05-21T01:32:28.340Z,19.3259
2023-05-21T01:33:30.923Z,19.2647
2023-05-21T01:34:32.546Z,19.5368
2023-05-21T01:35:35.148Z,19.0539
2023-05-21T01:36:37.610Z,19.6027
2023-05-21T01:37:39.812Z,19.7634
2023-05-21T01:38:42.303Z,18.6640
2023-05-21T01:39:44.678Z,19.0110
2023-05-21T01:40:47.052Z,19.3715
2023-05-21T01:41:49.209Z,19.3343
2023-05-21T01:42:51.647Z,18.7064
2023-05-21T01:43:53.951Z,18.5556
2023-05-21T01:44:56.083Z,18.5896
2023-05-21T01:45:58.504Z,19.2651
2023-05-21T01:47:00.807Z,17.7052
2023-05-21T01:48:03.113Z,17.8126
2023-05-21T01:49:05.535Z,18.0619
2023-05-21T01:50:07.777Z,17.5416
2023-05-21T01:51:10.280Z,17.9536
2023-05-21T01:52:12.528Z,17.9676
2023-05-21T01:53:25.515Z,18.8946
2023-05-21T01:59:30.342Z,17.7681
2023-05-21T01:59:30.342Z,17.5295
2023-05-21T02:00:21.462Z,17.9323
2023-05-21T02:01:23.965Z,18.0847
2023-05-21T02:02:26.151Z,18.2756
2023-05-21T02:03:28.321Z,17.6701
2023-05-21T02:04:31.048Z,17.9544
2023-05-21T02:05:33.458Z,17.8078
2023-05-21T02:06:35.738Z,17.7702
2023-05-21T02:07:38.124Z,17.8175
2023-05-21T02:08:40.318Z,17.6460
2023-05-21T02:09:42.348Z,17.8491
2023-05-21T02:10:44.846Z,18.2073
2023-05-21T02:11:47.135Z,18.2263
2023-05-21T02:12:49.247Z,17.5306
2023-05-21T02:13:51.928Z,17.4875
2023-05-21T02:14:54.079Z,18.1253
2023-05-21T02:15:56.596Z,18.2897
2023-05-21T02:16:58.805Z,16.9239
2023-05-21T02:18:01.158Z,18.2574
2023-05-21T02:19:03.373Z,18.3376
2023-05-21T02:20:05.817Z,17.2254
2023-05-21T02:21:08.301Z,17.1127
2023-05-21T02:22:10.601Z,17.3425
2023-05-21T02:23:12.735Z,17.3018
2023-05-21T02:24:15.115Z,17.4269
2023-05-21T02:25:17.669Z,18.1685
2023-05-21T02:26:19.793Z,17.4842
2023-05-21T02:27:22.424Z,17.1987
2023-05-21T02:28:24.502Z,17.7003
2023-05-21T02:29:27.076Z,17.2290
2023-05-21T02:30:29.433Z,18.0230
2023-05-21T02:31:31.765Z,17.5123
2023-05-21T02:32:34.148Z,17.1023
2023-05-21T02:33:36.512Z,17.1594
2023-05-21T02:34:38.658Z,17.4131
2023-05-21T02:35:40.855Z,17.9075
2023-05-21T02:36:43.175Z,17.9487
2023-05-21T02:37:45.658Z,17.9042
2023-05-21T02:38:48.151Z,16.8249
2023-05-21T02:39:50.659Z,16.6976
2023-05-21T02:40:52.558Z,16.9452
2023-05-21T02:41:55.138Z,16.4739
2023-05-21T02:42:57.242Z,17.4309
2023-05-21T02:44:04.647Z,17.6678
2023-05-21T02:45:06.824Z,17.1272
2023-05-21T02:46:09.174Z,16.7399
2023-05-21T02:47:11.215Z,15.9077
2023-05-21T02:48:18.348Z,15.9150
2023-05-21T02:49:25.844Z,16.2589
2023-05-21T02:50:28.300Z,17.4035
2023-05-21T02:51:35.442Z,17.8784
2023-05-21T02:52:37.422Z,17.4242
2023-05-21T02:53:39.860Z,16.4259
2023-05-21T02:54:42.037Z,16.8286
2023-05-21T02:55:44.431Z,16.5783
2023-05-21T02:56:46.854Z,17.0703
2023-05-21T02:57:49.465Z,17.3905
2023-05-21T02:58:51.585Z,17.3244
2023-05-21T02:59:54.050Z,17.1921
2023-05-21T03:00:56.336Z,16.2616
2023-05-21T03:01:58.321Z,16.7285
2023-05-21T03:03:00.982Z,17.1136
2023-05-21T03:04:03.568Z,16.3020
2023-05-21T03:05:06.017Z,17.8280
2023-05-21T03:06:08.259Z,16.4433
2023-05-21T03:07:10.390Z,16.2622
2023-05-21T03:08:12.802Z,16.8278
2023-05-21T03:09:19.799Z,17.4253
2023-05-21T03:10:22.039Z,17.2145
2023-05-21T03:11:24.474Z,17.1874
2023-05-21T03:12:26.531Z,17.7062
2023-05-21T03:13:29.413Z,16.7498
2023-05-21T03:14:31.283Z,17.2692
2023-05-21T03:15:33.532Z,17.2857
2023-05-21T03:16:35.930Z,16.3756
2023-05-21T03:17:38.551Z,16.4660
2023-05-21T03:18:40.452Z,15.7588
2023-05-21T03:19:42.933Z,17.4050
2023-05-21T03:20:45.170Z,19.0308
2023-05-21T03:21:47.571Z,16.8883
2023-05-21T03:22:50.115Z,16.9773
2023-05-21T03:23:52.671Z,17.3366
2023-05-21T03:24:54.825Z,17.2418
2023-05-21T03:25:56.961Z,17.9279
2023-05-21T03:26:59.320Z,15.7196
2023-05-21T03:28:01.613Z,16.5886
2023-05-21T03:29:03.884Z,17.3922
2023-05-21T03:30:06.921Z,17.9969
2023-05-21T03:31:08.578Z,18.7696
2023-05-21T03:32:10.853Z,17.9500
2023-05-21T03:33:13.535Z,18.0297
2023-05-21T03:34:15.577Z,18.3638
2023-05-21T03:35:18.142Z,17.4407
2023-05-21T03:36:20.600Z,16.7783
2023-05-21T03:37:22.743Z,16.8456
2023-05-21T03:38:25.515Z,17.7579
2023-05-21T03:39:27.514Z,17.2007
2023-05-21T03:40:29.830Z,16.9244
2023-05-21T03:41:31.672Z,16.7955
2023-05-21T03:42:34.557Z,17.4248
2023-05-21T03:43:36.296Z,16.5152
2023-05-21T03:44:39.138Z,16.7083
2023-05-21T03:45:44.177Z,16.3718
2023-05-21T03:46:48.118Z,16.1269
2023-05-21T03:47:50.517Z,15.8951
2023-05-21T03:48:53.086Z,15.9693
2023-05-21T03:49:55.262Z,15.6870
2023-05-21T03:50:57.737Z,15.5338
2023-05-21T03:51:59.786Z,16.0464
2023-05-21T03:53:02.088Z,15.7245
2023-05-21T03:54:04.623Z,15.8898
2023-05-21T03:55:06.723Z,16.6397
2023-05-21T03:56:09.544Z,15.3345
2023-05-21T03:57:21.410Z,15.7565
2023-05-21T03:58:14.542Z,15.9729
2023-05-21T03:59:16.431Z,15.9315
2023-05-21T04:00:18.726Z,16.3783
2023-05-21T04:01:21.490Z,16.4647
2023-05-21T04:02:24.151Z,15.7347
2023-05-21T04:03:26.782Z,14.3848
2023-05-21T04:04:28.110Z,16.0245
2023-05-21T04:05:35.592Z,16.9090
2023-05-21T04:06:37.823Z,17.3101
2023-05-21T04:07:39.726Z,17.4257
2023-05-21T04:08:43.163Z,17.4794
2023-05-21T04:09:44.548Z,16.7621
2023-05-21T04:10:46.925Z,17.2369
2023-05-21T04:11:50.422Z,17.7890
2023-05-21T04:12:52.576Z,16.3634
2023-05-21T04:13:54.012Z,17.2064
2023-05-21T04:14:55.974Z,17.6671
2023-05-21T04:15:58.668Z,17.1926
2023-05-21T04:17:02.063Z,16.6011
2023-05-21T04:18:03.481Z,17.0855
2023-05-21T04:19:05.596Z,16.7284
2023-05-21T04:20:07.760Z,17.5554
2023-05-21T04:21:10.377Z,17.3601
2023-05-21T04:22:12.424Z,17.3007
2023-05-21T04:23:15.962Z,17.6909
2023-05-21T04:24:16.910Z,17.9146
2023-05-21T04:25:24.240Z,17.3396
2023-05-21T04:26:27.724Z,18.5211
2023-05-21T04:27:28.907Z,18.8479
2023-05-21T04:28:32.766Z,18.1584
2023-05-21T04:29:33.926Z,17.5515
2023-05-21T04:30:35.942Z,18.1539
2023-05-21T04:31:38.849Z,18.5233
2023-05-21T04:32:41.952Z,18.4713
2023-05-21T04:33:43.170Z,18.6658
2023-05-21T04:34:45.690Z,17.2607
2023-05-21T04:35:47.878Z,18.1426
2023-05-21T04:36:51.208Z,18.6114
2023-05-21T04:37:52.178Z,16.7741
2023-05-21T04:38:55.498Z,16.9010
2023-05-21T04:39:57.389Z,18.0478
2023-05-21T04:40:59.577Z,16.9234
2023-05-21T04:42:01.879Z,17.2933
2023-05-21T04:43:04.176Z,17.8826
2023-05-21T04:44:06.297Z,17.6480
2023-05-21T04:45:08.427Z,18.7938
2023-05-21T04:46:11.298Z,17.9056
2023-05-21T04:47:13.509Z,18.2293
2023-05-21T04:48:16.037Z,17.4472
2023-05-21T04:49:17.912Z,18.6134
2023-05-21T04:50:20.389Z,18.4297
2023-05-21T04:51:22.931Z,18.3702
2023-05-21T04:52:26.455Z,18.1936
2023-05-21T04:53:27.285Z,16.7938
2023-05-21T04:54:29.643Z,17.9967
2023-05-21T04:55:32.251Z,17.2818
2023-05-21T04:56:34.464Z,17.1218
2023-05-21T04:57:36.968Z,17.3557
2023-05-21T04:58:39.009Z,18.1760
2023-05-21T04:59:41.337Z,18.1101
2023-05-21T05:00:43.607Z,17.0913
2023-05-21T05:01:45.606Z,17.4333
2023-05-21T05:02:48.133Z,17.6453
2023-05-21T05:03:50.550Z,18.0998
2023-05-21T05:04:53.779Z,17.7487
2023-05-21T05:05:55.351Z,18.7603
2023-05-21T05:06:59.004Z,18.8882
2023-05-21T05:07:59.754Z,18.7523
2023-05-21T05:09:02.546Z,18.7222
2023-05-21T05:10:04.682Z,18.5066
2023-05-21T05:11:08.308Z,19.0423
2023-05-21T05:12:09.499Z,17.9720
2023-05-21T05:13:11.388Z,19.2518
2023-05-21T05:14:13.864Z,18.8301
2023-05-21T05:15:17.671Z,18.1436
2023-05-21T05:16:18.484Z,19.1288
2023-05-21T05:17:21.359Z,18.9847
2023-05-21T05:18:24.366Z,19.3628
2023-05-21T05:19:25.308Z,18.7519
2023-05-21T05:20:28.049Z,19.9721
2023-05-21T05:21:35.410Z,19.1044
2023-05-21T05:22:37.465Z,18.9609
2023-05-21T05:23:40.075Z,17.7694
2023-05-21T05:24:41.943Z,19.4338
2023-05-21T05:25:44.372Z,19.1003
2023-05-21T05:26:46.451Z,19.0591
2023-05-21T05:27:49.113Z,19.1360
2023-05-21T05:28:51.575Z,18.4552
2023-05-21T05:29:53.654Z,19.0253
2023-05-21T05:30:56.195Z,19.6950
2023-05-21T05:31:58.464Z,19.2413
2023-05-21T05:33:01.005Z,19.8654
2023-05-21T05:34:03.175Z,19.8549
2023-05-21T05:35:05.390Z,19.1464
2023-05-21T05:36:07.580Z,19.0315
2023-05-21T05:37:10.309Z,18.6525
2023-05-21T05:38:12.841Z,18.4326
2023-05-21T05:39:14.503Z,18.8969
2023-05-21T05:40:18.977Z,18.9685
2023-05-21T05:41:20.071Z,20.0003
2023-05-21T05:42:21.727Z,18.6770
2023-05-21T05:43:24.355Z,19.4504
2023-05-21T05:44:26.468Z,19.8124
2023-05-21T05:45:29.650Z,20.5181
2023-05-21T05:46:31.532Z,19.7401
2023-05-21T05:47:33.860Z,21.7309
2023-05-21T05:48:35.653Z,26.0848
2023-05-21T05:49:37.804Z,25.8936
2023-05-21T05:50:41.485Z,26.8500
2023-05-21T05:51:42.924Z,26.8794
2023-05-21T05:52:45.160Z,27.6561
2023-05-21T05:53:52.260Z,26.6499
2023-05-21T05:54:55.062Z,27.3601
2023-05-21T05:55:57.242Z,27.3318
2023-05-21T05:56:59.328Z,27.6411
2023-05-21T05:58:01.536Z,27.4707
2023-05-21T05:59:03.900Z,28.3597
2023-05-21T06:00:15.166Z,27.9971
2023-05-21T06:01:08.292Z,27.3065
2023-05-21T06:02:10.825Z,27.4570
2023-05-21T06:03:13.534Z,27.1817
2023-05-21T06:04:15.472Z,27.7862
2023-05-21T06:05:18.108Z,28.6611
2023-05-21T06:06:20.535Z,27.4966
2023-05-21T06:07:22.700Z,28.5872
2023-05-21T06:08:25.871Z,29.1309
2023-05-21T06:09:26.967Z,28.1320
2023-05-21T06:10:29.522Z,29.3178
2023-05-21T06:11:36.403Z,29.0951
2023-05-21T06:12:39.134Z,29.3132
2023-05-21T06:13:41.258Z,28.7599
2023-05-21T06:14:45.158Z,29.8524
2023-05-21T06:15:45.926Z,29.9493
2023-05-21T06:16:48.551Z,30.3296
2023-05-21T06:17:51.113Z,30.2865
2023-05-21T06:18:59.147Z,29.3298
2023-05-21T06:20:01.266Z,29.8342
2023-05-21T06:21:02.750Z,30.3940
2023-05-21T06:22:04.866Z,30.9496
2023-05-21T06:23:07.907Z,30.0774
2023-05-21T06:24:09.368Z,31.2669
2023-05-21T06:25:12.153Z,30.5038
2023-05-21T06:26:14.404Z,29.6721
2023-05-21T06:27:16.955Z,28.7977
2023-05-21T06:28:19.060Z,31.2146
2023-05-21T06:29:22.625Z,29.8855
2023-05-21T06:30:23.982Z,30.5398
2023-05-21T06:31:26.219Z,31.3932
2023-05-21T06:32:28.112Z,30.5844
2023-05-21T06:33:30.660Z,30.2778
2023-05-21T06:34:33.853Z,30.6694
2023-05-21T06:35:35.427Z,27.4910
2023-05-21T06:36:42.682Z,28.8407
2023-05-21T06:37:44.607Z,29.0793
2023-05-21T06:38:48.685Z,27.4398
2023-05-21T06:39:49.167Z,30.4787
2023-05-21T06:40:51.534Z,30.5464
2023-05-21T06:41:54.159Z,29.6078
2023-05-21T06:42:56.665Z,30.0375
2023-05-21T06:43:58.867Z,30.2285
2023-05-21T06:45:00.876Z,30.6651
2023-05-21T06:46:04.355Z,29.1627
2023-05-21T06:47:06.506Z,26.9795
2023-05-21T06:48:08.037Z,30.6465
2023-05-21T06:49:11.857Z,30.3671
2023-05-21T06:50:12.829Z,29.8435
2023-05-21T06:51:15.156Z,31.0579
2023-05-21T06:52:18.311Z,30.0727
2023-05-21T06:53:20.814Z,26.1077
2023-05-21T06:54:22.051Z,26.1054
2023-05-21T06:55:24.579Z,28.6421
2023-05-21T06:56:26.548Z,28.3817
2023-05-21T06:57:29.125Z,27.8386
2023-05-21T06:58:31.320Z,28.0258
2023-05-21T06:59:34.009Z,27.2280
2023-05-21T07:00:36.317Z,26.7906
2023-05-21T07:01:38.378Z,29.6196
2023-05-21T07:02:40.785Z,28.9014
2023-05-21T07:03:43.419Z,27.9247
2023-05-21T07:04:45.528Z,28.5845
2023-05-21T07:05:47.727Z,28.2159
2023-05-21T07:06:50.091Z,28.1636
2023-05-21T07:07:52.568Z,26.8244
2023-05-21T07:08:54.708Z,27.3347
2023-05-21T07:09:57.015Z,26.7192
2023-05-21T07:11:00.180Z,27.2052
2023-05-21T07:12:01.597Z,25.6853
2023-05-21T07:13:05.981Z,25.2492
2023-05-21T07:14:06.234Z,25.3936
2023-05-21T07:15:09.846Z,27.1262
2023-05-21T07:16:11.379Z,26.8497
2023-05-21T07:17:14.545Z,28.1909
2023-05-21T07:18:15.724Z,27.6443
2023-05-21T07:19:19.221Z,26.7800
2023-05-21T07:20:20.518Z,26.9756
2023-05-21T07:21:23.872Z,25.9661
2023-05-21T07:22:27.386Z,27.2176
2023-05-21T07:23:32.155Z,25.3500
2023-05-21T07:24:36.506Z,28.8442
2023-05-21T07:25:37.226Z,27.4207
2023-05-21T07:26:41.165Z,24.1153
2023-05-21T07:27:41.529Z,21.2251
2023-05-21T07:28:44.372Z,26.9661
2023-05-21T07:29:46.907Z,23.0258
2023-05-21T07:30:48.535Z,28.1824
2023-05-21T07:31:51.471Z,27.3818
2023-05-21T07:32:52.916Z,25.4737
2023-05-21T07:33:55.603Z,23.3744
2023-05-21T07:34:58.948Z,21.8591
2023-05-21T07:36:00.764Z,22.2407
2023-05-21T07:37:09.346Z,22.5078
2023-05-21T07:38:14.216Z,19.8031
2023-05-21T07:39:22.659Z,24.9597
2023-05-21T07:40:23.876Z,24.9085
2023-05-21T07:41:27.300Z,24.9570
2023-05-21T07:42:28.210Z,22.5721
2023-05-21T07:43:30.901Z,21.7329
2023-05-21T07:44:35.611Z,23.8191
2023-05-21T07:45:38.189Z,25.4111
2023-05-21T07:46:42.601Z,24.2297
2023-05-21T07:47:45.048Z,26.5654
2023-05-21T07:48:47.471Z,25.6524
2023-05-21T07:49:49.573Z,22.4537
2023-05-21T07:50:51.782Z,24.5404
2023-05-21T07:51:54.251Z,22.0468
2023-05-21T07:52:56.735Z,22.6940
2023-05-21T07:53:58.823Z,21.8833
2023-05-21T07:55:01.174Z,21.4767
2023-05-21T07:56:03.857Z,24.0212
2023-05-21T07:57:06.231Z,21.6626
2023-05-21T07:58:08.560Z,20.9956
2023-05-21T07:59:15.274Z,22.0357
2023-05-21T08:00:22.455Z,21.6816
2023-05-21T08:01:25.094Z,22.4837
2023-05-21T08:02:27.504Z,21.8790
2023-05-21T08:03:29.591Z,22.0418
2023-05-21T08:04:32.193Z,24.8660
2023-05-21T08:05:34.187Z,22.7294
2023-05-21T08:06:36.658Z,22.3610
2023-05-21T08:07:38.880Z,21.9394
2023-05-21T08:08:41.423Z,20.9990
2023-05-21T08:09:43.485Z,22.6022
2023-05-21T08:10:46.044Z,22.5286
2023-05-21T08:11:48.301Z,22.1589
2023-05-21T08:12:50.377Z,19.2272
2023-05-21T08:13:52.986Z,19.5790
2023-05-21T08:14:55.875Z,20.3557
2023-05-21T08:16:02.354Z,21.1288
2023-05-21T08:17:04.548Z,21.0666
2023-05-21T08:18:07.344Z,20.5095
2023-05-21T08:19:09.387Z,20.0910
2023-05-21T08:20:11.778Z,18.9910
2023-05-21T08:21:14.095Z,17.1248
2023-05-21T08:22:16.509Z,16.7884
2023-05-21T08:23:18.649Z,15.9419
2023-05-21T08:24:25.931Z,17.2025
2023-05-21T08:25:28.504Z,16.4381
2023-05-21T08:26:30.675Z,17.5902
2023-05-21T08:27:33.115Z,18.2881
2023-05-21T08:28:35.609Z,18.7881
2023-05-21T08:29:37.554Z,15.3187
2023-05-21T08:30:39.988Z,19.4977
2023-05-21T08:31:42.599Z,20.7016
2023-05-21T08:32:44.862Z,19.6929
2023-05-21T08:33:47.908Z,19.8054
2023-05-21T08:34:54.222Z,20.1408
2023-05-21T08:35:56.429Z,21.2845
2023-05-21T08:36:58.668Z,20.3851
2023-05-21T08:38:01.354Z,19.3731
2023-05-21T08:39:03.593Z,16.1964
2023-05-21T08:40:06.128Z,17.6295
2023-05-21T08:41:29.384Z,16.1150
2023-05-21T08:42:22.679Z,16.8343
2023-05-21T08:43:23.260Z,16.8762
2023-05-21T08:44:30.009Z,19.5058
2023-05-21T08:45:31.999Z,16.8305
2023-05-21T08:46:34.947Z,17.9473
2023-05-21T08:47:36.948Z,18.7634
2023-05-21T08:48:39.032Z,17.5447
2023-05-21T08:49:41.240Z,15.9462
2023-05-21T08:50:43.736Z,14.3742
2023-05-21T08:51:46.047Z,15.5447
2023-05-21T08:52:48.480Z,15.5254
2023-05-21T08:53:50.751Z,15.5408
2023-05-21T08:54:57.946Z,16.2877
2023-05-21T08:56:00.112Z,15.1136
2023-05-21T08:57:02.749Z,15.2278
2023-05-21T08:58:04.877Z,15.3579
2023-05-21T08:59:07.397Z,15.0050
2023-05-21T09:00:09.499Z,15.0132
2023-05-21T09:01:12.001Z,13.5777
2023-05-21T09:02:14.422Z,13.4251
2023-05-21T09:03:16.623Z,15.1705
2023-05-21T09:04:21.736Z,16.3820
2023-05-21T09:05:26.041Z,13.9926
2023-05-21T09:06:28.370Z,15.1641
2023-05-21T09:07:30.872Z,16.1654
2023-05-21T09:08:33.223Z,14.2975
2023-05-21T09:09:40.361Z,16.7629
2023-05-21T09:10:42.480Z,16.4226
2023-05-21T09:11:45.348Z,13.2001
2023-05-21T09:12:47.441Z,14.8999
2023-05-21T09:13:54.595Z,13.7724
2023-05-21T09:14:56.853Z,13.2798
2023-05-21T09:15:59.220Z,15.1346
2023-05-21T09:17:01.707Z,15.5583
2023-05-21T09:18:09.110Z,13.5612
2023-05-21T09:19:11.211Z,13.7222
2023-05-21T09:20:13.636Z,16.2736
2023-05-21T09:21:15.934Z,15.1570
2023-05-21T09:22:17.786Z,15.0736
2023-05-21T09:23:20.228Z,12.3947
2023-05-21T09:24:22.841Z,14.8732
2023-05-21T09:25:25.377Z,16.7803
2023-05-21T09:26:27.825Z,17.0250
2023-05-21T09:27:29.979Z,17.3616
2023-05-21T09:28:32.259Z,19.2852
2023-05-21T09:29:34.340Z,17.7419
2023-05-21T09:30:41.811Z,16.2020
2023-05-21T09:31:44.000Z,18.8790
2023-05-21T09:32:46.354Z,20.4618
2023-05-21T09:33:48.686Z,19.6596
2023-05-21T09:34:55.968Z,15.6334
2023-05-21T09:35:58.161Z,15.1361
2023-05-21T09:37:00.263Z,19.7998
2023-05-21T09:38:02.921Z,17.2398
2023-05-21T09:39:04.932Z,19.6956
2023-05-21T09:40:07.633Z,17.3277
2023-05-21T09:41:09.968Z,14.5135
2023-05-21T09:42:12.142Z,13.4588
2023-05-21T09:43:14.502Z,16.6528
2023-05-21T09:44:16.873Z,17.6613
2023-05-21T09:45:23.931Z,14.2980
2023-05-21T09:46:26.721Z,16.5860
2023-05-21T09:47:28.673Z,15.8556
2023-05-21T09:48:31.120Z,18.0008
2023-05-21T09:49:33.198Z,18.4804
2023-05-21T09:50:35.799Z,17.6303
2023-05-21T09:51:37.947Z,17.7108
2023-05-21T09:52:45.344Z,18.1384
2023-05-21T09:53:47.599Z,17.3327
2023-05-21T09:54:49.904Z,17.8404
2023-05-21T09:55:52.443Z,15.0336
2023-05-21T09:56:54.757Z,18.7852
2023-05-21T09:57:56.752Z,16.6910
2023-05-21T09:59:04.138Z,18.3975
2023-05-21T10:00:06.468Z,19.0120
2023-05-21T10:01:08.758Z,16.3076
2023-05-21T10:02:11.103Z,15.2053
2023-05-21T10:03:18.213Z,16.9222
2023-05-21T10:04:20.509Z,14.5524
2023-05-21T10:05:27.788Z,13.3265
2023-05-21T10:06:30.060Z,13.4106
2023-05-21T10:07:32.519Z,15.8498
2023-05-21T10:08:34.920Z,17.8623
2023-05-21T10:19:05.182Z,13.7708
2023-05-21T10:19:05.182Z,12.1661
2023-05-21T10:20:05.673Z,13.0793
2023-05-21T10:21:07.978Z,14.1668
2023-05-21T10:22:10.305Z,12.2672
2023-05-21T10:23:12.576Z,12.9311
2023-05-21T10:24:14.607Z,11.5217
2023-05-21T10:25:17.016Z,11.1055
2023-05-21T10:26:24.337Z,11.9301
2023-05-21T10:27:32.728Z,12.7877
2023-05-21T10:28:38.646Z,12.8926
2023-05-21T10:29:40.841Z,13.2990
2023-05-21T10:30:42.925Z,12.6844
2023-05-21T10:31:45.478Z,11.5388
2023-05-21T10:32:48.302Z,12.4047
2023-05-21T10:33:50.142Z,12.0944
2023-05-21T10:34:52.609Z,12.6511
2023-05-21T10:35:54.692Z,15.3188
2023-05-21T10:36:57.143Z,14.4142
2023-05-21T10:37:59.437Z,14.0541
2023-05-21T10:39:01.818Z,14.0809
2023-05-21T10:40:08.789Z,13.1824
2023-05-21T10:41:11.293Z,15.5593
2023-05-21T10:42:13.741Z,15.4525
2023-05-21T10:43:16.148Z,14.8969
2023-05-21T10:44:18.264Z,13.1468
2023-05-21T10:45:20.741Z,11.7330
2023-05-21T10:46:22.943Z,12.4783
2023-05-21T10:47:25.392Z,11.7546
2023-05-21T10:48:27.825Z,11.6428
2023-05-21T10:49:30.123Z,12.8397
2023-05-21T10:50:32.532Z,14.0734
2023-05-21T10:51:34.774Z,14.5133
2023-05-21T10:52:36.898Z,12.7723
2023-05-21T10:53:39.376Z,12.1849
2023-05-21T10:54:41.569Z,15.1092
2023-05-21T10:55:44.414Z,13.1537
2023-05-21T10:56:46.344Z,12.9361
2023-05-21T10:57:48.763Z,13.7215
2023-05-21T10:58:51.247Z,15.8767
2023-05-21T10:59:53.370Z,15.7650
2023-05-21T11:01:15.862Z,15.9500
2023-05-21T11:01:58.456Z,14.0962
2023-05-21T11:03:03.040Z,12.7115
2023-05-21T11:04:03.532Z,14.3075
2023-05-21T11:05:10.900Z,12.8597
2023-05-21T11:06:12.315Z,12.0969
2023-05-21T11:07:18.777Z,12.8599
2023-05-21T11:09:00.546Z,12.0574
2023-05-21T11:10:02.721Z,12.5114
2023-05-21T11:11:04.883Z,13.2203
2023-05-21T11:12:07.144Z,12.5800
2023-05-21T11:13:09.868Z,13.1794
2023-05-21T11:14:11.891Z,11.6854
2023-05-21T11:15:14.215Z,11.8363
2023-05-21T11:16:16.332Z,13.1643
2023-05-21T11:17:18.725Z,12.7522
2023-05-21T11:18:21.180Z,12.3020
2023-05-21T11:19:23.610Z,12.4904
2023-05-21T11:20:26.089Z,13.2701
2023-05-21T11:21:28.176Z,13.2274
2023-05-21T11:22:30.452Z,14.0520
2023-05-21T11:23:37.620Z,13.7749
2023-05-21T11:24:40.072Z,11.9272
2023-05-21T11:26:06.476Z,12.0007
2023-05-21T11:26:49.622Z,13.2865
2023-05-21T11:27:51.986Z,15.0167
2023-05-21T11:28:54.321Z,14.5411
2023-05-21T11:29:56.787Z,12.5586
2023-05-21T11:30:59.069Z,12.7465
2023-05-21T11:32:01.507Z,14.0971
2023-05-21T11:33:03.758Z,14.3659
2023-05-21T11:34:05.873Z,14.1954
2023-05-21T11:35:08.259Z,12.8913
2023-05-21T11:36:10.644Z,13.5229
2023-05-21T11:37:12.887Z,13.3163
2023-05-21T11:38:15.140Z,12.6763
2023-05-21T11:39:17.591Z,12.5064
2023-05-21T11:40:19.951Z,11.4297
2023-05-21T11:41:22.443Z,11.6706
2023-05-21T11:42:24.898Z,10.9546
2023-05-21T11:43:27.218Z,10.7455
2023-05-21T11:44:29.659Z,11.5534
2023-05-21T11:45:31.755Z,11.0678
2023-05-21T11:46:34.271Z,12.0110
2023-05-21T11:47:36.235Z,12.6460
2023-05-21T11:48:38.745Z,13.8014
2023-05-21T11:49:41.177Z,15.0894
2023-05-21T11:50:43.396Z,15.2486
2023-05-21T11:51:45.754Z,15.2705
2023-05-21T11:52:48.397Z,14.1358
2023-05-21T11:53:50.729Z,14.1175
2023-05-21T11:54:52.866Z,13.7534
2023-05-21T11:55:55.023Z,14.9158
2023-05-21T11:56:57.723Z,13.8053
2023-05-21T11:57:59.849Z,12.1910
2023-05-21T11:59:02.221Z,13.6332
2023-05-21T12:00:04.653Z,13.4181
2023-05-21T12:01:07.139Z,11.4279
2023-05-21T12:02:09.425Z,14.0413
2023-05-21T12:03:11.879Z,15.1177
2023-05-21T12:04:13.733Z,13.5011
2023-05-21T12:05:16.406Z,12.9010
2023-05-21T12:06:18.487Z,13.4455
2023-05-21T12:07:20.950Z,11.2557
2023-05-21T12:08:23.384Z,12.4514
2023-05-21T12:09:25.413Z,12.2437
2023-05-21T12:10:28.100Z,13.7954
2023-05-21T12:11:30.282Z,12.7336
2023-05-21T12:12:41.853Z,12.6328
2023-05-21T12:13:39.925Z,13.5634
2023-05-21T12:14:42.190Z,14.0841
2023-05-21T12:15:44.574Z,12.5606
2023-05-21T12:16:46.889Z,11.9744
2023-05-21T12:17:49.716Z,12.8128
2023-05-21T12:18:51.540Z,12.9103
2023-05-21T12:19:53.825Z,12.6205
2023-05-21T12:20:56.046Z,12.2328
2023-05-21T12:21:58.747Z,13.0107
2023-05-21T12:23:01.224Z,13.3200
2023-05-21T12:24:08.050Z,12.3849
2023-05-21T12:25:10.401Z,12.0128
2023-05-21T12:26:12.609Z,12.0717
2023-05-21T12:27:15.168Z,11.3021
2023-05-21T12:28:17.128Z,11.2017
2023-05-21T12:29:24.233Z,11.7651
2023-05-21T12:30:26.746Z,11.9271
2023-05-21T12:31:34.015Z,11.9351
2023-05-21T12:32:36.255Z,11.4655
2023-05-21T12:33:38.524Z,11.6435
2023-05-21T12:34:40.792Z,11.5967
2023-05-21T12:35:48.024Z,11.1866
2023-05-21T12:36:55.204Z,11.5128
2023-05-21T12:37:57.533Z,11.8841
2023-05-21T12:38:59.744Z,11.9713
2023-05-21T12:40:02.369Z,11.9179
2023-05-21T12:41:04.523Z,11.9118
2023-05-21T12:42:06.974Z,11.4925
2023-05-21T12:43:09.244Z,12.2935
2023-05-21T12:44:11.553Z,11.6535
2023-05-21T12:45:13.881Z,11.7296
2023-05-21T12:46:16.403Z,11.9070
2023-05-21T12:47:18.539Z,11.8412
2023-05-21T12:48:21.037Z,11.1857
2023-05-21T12:49:23.495Z,10.1309
2023-05-21T12:50:25.711Z,11.6177
2023-05-21T12:51:28.192Z,12.1957